Time;durP1;ratioP1;P1;durP2;ratioP2;P2;SDS_P1;SDS_P2;PMS_P1;PMS_P2;Temp;Humidity;BMP_temperature;BMP_pressure;BME280_temperature;BME280_humidity;BME280_pressure;Samples;Min_cycle;Max_cycle;Signal;HPM_P1;HPM_P2
2023/01/12 00:01:23;;;;;;;34.03;3.30;;;;;;;;;;4965479;28;20083;-70
2023/01/12 00:03:51;;;;;;;37.05;4.32;;;;;;;;;;4965303;28;20470;-70
2023/01/12 00:06:19;;;;;;;30.13;3.65;;;;;;;;;;4966649;28;20057;-70
2023/01/12 00:08:46;;;;;;;33.15;3.47;;;;;;;;;;4965071;28;20082;-70
2023/01/12 00:11:14;;;;;;;24.88;3.33;;;;;;;;;;4964009;28;20422;-70
2023/01/12 00:13:42;;;;;;;30.23;4.00;;;;;;;;;;4961541;28;20645;-71
2023/01/12 00:18:58;;;;;;;35.05;3.70;;;;;;;;;;4965298;28;20038;-70
2023/01/12 00:21:26;;;;;;;35.35;5.10;;;;;;;;;;4966578;28;20054;-70
2023/01/12 00:23:53;;;;;;;25.58;3.13;;;;;;;;;;4961464;28;20118;-70
2023/01/12 00:26:20;;;;;;;34.72;4.65;;;;;;;;;;4966573;28;20662;-70
2023/01/12 00:28:49;;;;;;;33.33;4.63;;;;;;;;;;4967745;28;20065;-70
2023/01/12 00:31:16;;;;;;;40.10;4.63;;;;;;;;;;4963315;28;20085;-70
2023/01/12 00:33:43;;;;;;;27.98;3.83;;;;;;;;;;4962411;28;20577;-70
2023/01/12 00:36:12;;;;;;;36.35;3.50;;;;;;;;;;4962439;28;20054;-70
2023/01/12 00:38:41;;;;;;;26.40;3.88;;;;;;;;;;4966605;28;20078;-70
2023/01/12 00:41:09;;;;;;;30.20;3.78;;;;;;;;;;4969825;28;20537;-70
2023/01/12 00:46:30;;;;;;;23.00;3.13;;;;;;;;;;4968929;28;20051;-70
2023/01/12 00:48:58;;;;;;;32.65;3.63;;;;;;;;;;4967790;28;20506;-70
2023/01/12 00:51:25;;;;;;;32.85;3.75;;;;;;;;;;4958563;28;20046;-70
2023/01/12 00:53:52;;;;;;;34.35;3.95;;;;;;;;;;4965506;28;20434;-70
2023/01/12 00:56:19;;;;;;;36.35;4.55;;;;;;;;;;4965366;28;20058;-70
2023/01/12 00:58:47;;;;;;;32.05;3.40;;;;;;;;;;4962439;28;20059;-70
2023/01/12 01:01:14;;;;;;;36.92;4.35;;;;;;;;;;4968030;28;20059;-70
2023/01/12 01:03:43;;;;;;;34.95;3.90;;;;;;;;;;4964938;28;20061;-70
2023/01/12 01:06:10;;;;;;;28.15;3.95;;;;;;;;;;4965160;28;20046;-70
2023/01/12 01:08:38;;;;;;;28.83;3.97;;;;;;;;;;4965492;28;20058;-70
2023/01/12 01:11:06;;;;;;;30.90;3.92;;;;;;;;;;4970494;28;20131;-70
2023/01/12 01:13:35;;;;;;;33.25;3.95;;;;;;;;;;4961591;28;20046;-70
2023/01/12 01:16:03;;;;;;;32.55;3.78;;;;;;;;;;4965172;28;20065;-70
2023/01/12 01:18:31;;;;;;;28.15;3.50;;;;;;;;;;4968107;28;20050;-70
2023/01/12 01:20:59;;;;;;;31.13;3.63;;;;;;;;;;4965925;28;20055;-70
2023/01/12 01:23:27;;;;;;;34.75;4.43;;;;;;;;;;4970330;28;20417;-70
2023/01/12 01:25:55;;;;;;;31.60;3.38;;;;;;;;;;4969146;28;20042;-70
2023/01/12 01:28:22;;;;;;;33.45;3.88;;;;;;;;;;4961676;28;20059;-70
2023/01/12 01:30:49;;;;;;;24.67;3.42;;;;;;;;;;4969904;28;20629;-70
2023/01/12 01:33:17;;;;;;;32.83;3.80;;;;;;;;;;4973009;28;20049;-70
2023/01/12 01:35:44;;;;;;;32.97;3.22;;;;;;;;;;4962157;28;20525;-70
2023/01/12 01:38:12;;;;;;;30.40;4.25;;;;;;;;;;4960097;28;20051;-70
2023/01/12 01:40:43;;;;;;;31.00;4.03;;;;;;;;;;4970503;28;20461;-70
2023/01/12 01:43:13;;;;;;;32.95;3.60;;;;;;;;;;4965525;28;20055;-70
2023/01/12 01:45:41;;;;;;;38.25;4.10;;;;;;;;;;4971765;28;20541;-70
2023/01/12 01:48:11;;;;;;;31.17;4.03;;;;;;;;;;4967969;28;20141;-70
2023/01/12 01:50:40;;;;;;;32.13;3.72;;;;;;;;;;4968419;28;20058;-70
2023/01/12 01:53:10;;;;;;;32.10;3.95;;;;;;;;;;4965846;28;20723;-70
2023/01/12 01:55:40;;;;;;;30.50;3.50;;;;;;;;;;4968538;28;20196;-70
2023/01/12 01:58:09;;;;;;;28.02;3.92;;;;;;;;;;4968944;28;20047;-70
2023/01/12 02:00:36;;;;;;;39.13;4.20;;;;;;;;;;4970703;28;20529;-70
2023/01/12 02:03:05;;;;;;;43.10;5.05;;;;;;;;;;4967111;28;20047;-71
2023/01/12 02:05:33;;;;;;;38.38;4.95;;;;;;;;;;4966249;28;20050;-70
2023/01/12 02:08:03;;;;;;;41.15;3.88;;;;;;;;;;4969955;28;20545;-69
2023/01/12 02:10:30;;;;;;;36.17;4.93;;;;;;;;;;4965770;28;20524;-70
2023/01/12 02:18:50;;;;;;;45.55;5.13;;;;;;;;;;4928719;29;20083;-70
2023/01/12 02:21:28;;;;;;;42.10;5.28;;;;;;;;;;4960702;28;20051;-70
2023/01/12 02:24:08;;;;;;;44.15;4.68;;;;;;;;;;4958987;28;20058;-71
2023/01/12 02:26:52;;;;;;;38.38;4.30;;;;;;;;;;4968977;28;20062;-70
2023/01/12 02:29:43;;;;;;;37.22;4.70;;;;;;;;;;4969167;28;20051;-71
2023/01/12 02:32:17;;;;;;;44.58;5.00;;;;;;;;;;4956736;28;20062;-70
2023/01/12 02:34:49;;;;;;;35.38;5.30;;;;;;;;;;4962530;28;20055;-71
2023/01/12 02:37:22;;;;;;;36.08;4.72;;;;;;;;;;4959673;28;20043;-71
2023/01/12 02:39:57;;;;;;;44.80;5.07;;;;;;;;;;4968911;28;20489;-71
2023/01/12 02:42:42;;;;;;;48.75;5.10;;;;;;;;;;4963193;28;20070;-71
2023/01/12 02:45:16;;;;;;;48.58;5.03;;;;;;;;;;4966010;28;20051;-71
2023/01/12 02:47:47;;;;;;;48.15;4.82;;;;;;;;;;4966653;28;20042;-71
2023/01/12 02:50:15;;;;;;;45.63;7.05;;;;;;;;;;4968258;28;20426;-71
2023/01/12 02:52:45;;;;;;;46.03;5.40;;;;;;;;;;4965769;28;20413;-71
2023/01/12 02:55:13;;;;;;;52.08;5.28;;;;;;;;;;4968886;28;20042;-72
2023/01/12 02:57:41;;;;;;;57.25;5.97;;;;;;;;;;4968458;28;20054;-72
2023/01/12 03:00:09;;;;;;;45.92;5.50;;;;;;;;;;4966566;28;20070;-71
2023/01/12 03:02:37;;;;;;;45.53;5.10;;;;;;;;;;4966099;28;20436;-71
2023/01/12 03:05:07;;;;;;;51.42;6.13;;;;;;;;;;4968789;28;20508;-72
2023/01/12 03:07:38;;;;;;;50.15;5.53;;;;;;;;;;4960601;28;20062;-71
2023/01/12 03:10:16;;;;;;;49.35;5.30;;;;;;;;;;4969070;28;20055;-71
2023/01/12 03:12:44;;;;;;;54.45;8.00;;;;;;;;;;4966002;28;20058;-71
2023/01/12 03:15:13;;;;;;;59.20;6.53;;;;;;;;;;4963724;28;20049;-72
2023/01/12 03:17:42;;;;;;;59.25;5.80;;;;;;;;;;4966320;28;20055;-71
2023/01/12 03:20:15;;;;;;;54.10;7.40;;;;;;;;;;4969297;28;20043;-71
2023/01/12 03:22:42;;;;;;;54.80;6.03;;;;;;;;;;4971718;28;20050;-71
2023/01/12 03:25:13;;;;;;;56.33;6.55;;;;;;;;;;4967551;28;20058;-72
2023/01/12 03:27:41;;;;;;;65.93;7.68;;;;;;;;;;4963261;28;20066;-71
2023/01/12 03:30:11;;;;;;;53.10;6.10;;;;;;;;;;4963362;28;20051;-71
2023/01/12 03:32:38;;;;;;;47.20;6.05;;;;;;;;;;4961832;28;20097;-71
2023/01/12 03:35:07;;;;;;;60.47;7.55;;;;;;;;;;4966168;28;20051;-71
2023/01/12 03:37:38;;;;;;;53.75;7.07;;;;;;;;;;4968079;28;20498;-71
2023/01/12 03:40:09;;;;;;;63.13;6.82;;;;;;;;;;4964511;28;20059;-71
2023/01/12 03:42:40;;;;;;;60.53;7.22;;;;;;;;;;4967578;28;20069;-71
2023/01/12 03:45:12;;;;;;;62.95;8.82;;;;;;;;;;4962876;28;20406;-71
2023/01/12 03:47:41;;;;;;;60.22;7.72;;;;;;;;;;4962890;28;20450;-71
2023/01/12 03:50:10;;;;;;;53.00;6.63;;;;;;;;;;4962854;28;20494;-72
2023/01/12 03:52:40;;;;;;;58.80;7.20;;;;;;;;;;4962746;28;20059;-72
2023/01/12 03:55:09;;;;;;;39.60;4.80;;;;;;;;;;4963712;28;20050;-72
2023/01/12 03:57:37;;;;;;;56.80;6.90;;;;;;;;;;4960566;28;20101;-72
2023/01/12 04:00:06;;;;;;;51.63;7.63;;;;;;;;;;4965731;28;20050;-71
2023/01/12 04:02:34;;;;;;;53.95;5.70;;;;;;;;;;4963885;28;20057;-71
2023/01/12 04:05:01;;;;;;;55.70;6.22;;;;;;;;;;4961172;28;20074;-72
2023/01/12 04:07:29;;;;;;;48.97;5.32;;;;;;;;;;4965027;28;20051;-72
2023/01/12 04:09:57;;;;;;;43.10;5.85;;;;;;;;;;4967098;28;20077;-72
2023/01/12 04:12:23;;;;;;;46.38;5.20;;;;;;;;;;4965696;28;20055;-73
2023/01/12 04:14:51;;;;;;;39.85;4.60;;;;;;;;;;4966567;28;20055;-73
2023/01/12 04:17:22;;;;;;;29.73;3.58;;;;;;;;;;4965827;28;20065;-72
2023/01/12 04:19:50;;;;;;;24.52;3.22;;;;;;;;;;4963703;28;20047;-72
2023/01/12 04:25:04;;;;;;;28.08;3.47;;;;;;;;;;4965457;28;20141;-72
2023/01/12 04:27:31;;;;;;;22.95;2.58;;;;;;;;;;4965132;28;20062;-72
2023/01/12 04:29:59;;;;;;;25.20;2.60;;;;;;;;;;4968517;28;20047;-71
2023/01/12 04:32:26;;;;;;;18.52;2.58;;;;;;;;;;4967210;28;20581;-72
2023/01/12 04:34:53;;;;;;;34.58;3.97;;;;;;;;;;4964916;28;20054;-71
2023/01/12 04:37:20;;;;;;;28.88;3.20;;;;;;;;;;4966584;28;20062;-72
2023/01/12 04:39:48;;;;;;;27.80;3.20;;;;;;;;;;4965382;28;20474;-72
2023/01/12 04:45:01;;;;;;;21.88;3.08;;;;;;;;;;4966530;28;20058;-72
2023/01/12 04:47:29;;;;;;;34.88;3.60;;;;;;;;;;4962607;28;20059;-72
2023/01/12 04:49:56;;;;;;;25.48;3.40;;;;;;;;;;4967542;28;20054;-71
2023/01/12 04:52:23;;;;;;;38.40;3.95;;;;;;;;;;4967622;28;20058;-71
2023/01/12 04:54:50;;;;;;;28.55;3.35;;;;;;;;;;4964113;28;20070;-71
2023/01/12 04:57:19;;;;;;;26.52;2.60;;;;;;;;;;4968854;28;20407;-71
2023/01/12 04:59:46;;;;;;;26.88;2.92;;;;;;;;;;4967494;28;20501;-72
2023/01/12 05:02:13;;;;;;;30.02;3.10;;;;;;;;;;4970690;28;20051;-72
2023/01/12 05:04:41;;;;;;;29.30;3.88;;;;;;;;;;4966675;28;20169;-72
2023/01/12 05:07:08;;;;;;;47.55;3.80;;;;;;;;;;4969084;28;20054;-71
2023/01/12 05:12:22;;;;;;;26.88;3.42;;;;;;;;;;4963380;28;20074;-72
2023/01/12 05:14:49;;;;;;;23.27;3.60;;;;;;;;;;4969043;28;20502;-72
2023/01/12 05:17:17;;;;;;;26.17;4.15;;;;;;;;;;4963750;28;20494;-71
2023/01/12 05:19:44;;;;;;;24.45;3.50;;;;;;;;;;4969321;28;20390;-71
2023/01/12 05:22:11;;;;;;;19.20;2.85;;;;;;;;;;4965783;28;20075;-72
2023/01/12 05:24:38;;;;;;;18.10;3.25;;;;;;;;;;4968428;28;20062;-72
2023/01/12 05:27:06;;;;;;;17.05;2.45;;;;;;;;;;4968131;28;20074;-72
2023/01/12 05:29:34;;;;;;;15.65;2.80;;;;;;;;;;4966408;28;20057;-72
2023/01/12 05:32:02;;;;;;;10.88;2.10;;;;;;;;;;4966649;28;20066;-72
2023/01/12 05:34:29;;;;;;;6.85;2.13;;;;;;;;;;4969191;28;20058;-72
2023/01/12 05:36:56;;;;;;;5.78;1.80;;;;;;;;;;4972631;28;20146;-73
2023/01/12 05:39:23;;;;;;;7.13;1.90;;;;;;;;;;4970065;28;20054;-73
2023/01/12 05:44:37;;;;;;;10.35;1.90;;;;;;;;;;4966098;28;20059;-72
2023/01/12 05:47:05;;;;;;;9.57;2.17;;;;;;;;;;4966261;28;20170;-72
2023/01/12 05:49:32;;;;;;;6.40;1.98;;;;;;;;;;4961914;28;20099;-72
2023/01/12 05:51:59;;;;;;;6.28;2.33;;;;;;;;;;4982312;28;20501;-72
2023/01/12 05:54:26;;;;;;;8.05;2.25;;;;;;;;;;4963075;28;20051;-70
2023/01/12 05:56:54;;;;;;;4.63;2.38;;;;;;;;;;4962235;28;20051;-71
2023/01/12 05:59:21;;;;;;;6.10;2.60;;;;;;;;;;4961980;28;20057;-71
2023/01/12 06:01:50;;;;;;;9.45;3.00;;;;;;;;;;4960659;28;20383;-70
2023/01/12 06:04:17;;;;;;;8.23;3.22;;;;;;;;;;4959568;28;20065;-70
2023/01/12 06:06:45;;;;;;;17.75;4.35;;;;;;;;;;4958166;28;20054;-70
2023/01/12 06:09:12;;;;;;;16.77;3.65;;;;;;;;;;4956843;28;20078;-70
2023/01/12 06:14:25;;;;;;;38.05;4.70;;;;;;;;;;4963562;28;20065;-70
2023/01/12 06:16:54;;;;;;;36.47;5.00;;;;;;;;;;4958868;28;20491;-70
2023/01/12 06:19:21;;;;;;;59.17;5.85;;;;;;;;;;4959865;28;20058;-70
2023/01/12 06:21:48;;;;;;;70.03;8.50;;;;;;;;;;4961150;28;20043;-70
2023/01/12 06:24:15;;;;;;;67.60;8.25;;;;;;;;;;4958272;28;20062;-70
2023/01/12 06:26:44;;;;;;;74.68;8.13;;;;;;;;;;4956431;28;20054;-70
2023/01/12 06:29:12;;;;;;;84.07;8.68;;;;;;;;;;4967009;28;20055;-70
2023/01/12 06:31:39;;;;;;;60.95;7.75;;;;;;;;;;4966620;28;20043;-70
2023/01/12 06:34:08;;;;;;;68.28;8.15;;;;;;;;;;4967012;28;20066;-70
2023/01/12 06:36:35;;;;;;;63.30;8.07;;;;;;;;;;4967459;28;20062;-70
2023/01/12 06:39:03;;;;;;;72.43;7.93;;;;;;;;;;4968564;28;20133;-70
2023/01/12 06:44:15;;;;;;;50.25;6.72;;;;;;;;;;4965408;28;20091;-70
2023/01/12 06:46:42;;;;;;;67.63;7.80;;;;;;;;;;4967217;28;20374;-70
2023/01/12 06:49:11;;;;;;;54.65;6.55;;;;;;;;;;4964639;28;20375;-70
2023/01/12 06:51:38;;;;;;;56.35;5.70;;;;;;;;;;4967542;28;20134;-70
2023/01/12 06:54:05;;;;;;;45.55;6.35;;;;;;;;;;4966764;28;20050;-70
2023/01/12 06:56:32;;;;;;;60.45;6.47;;;;;;;;;;4960230;28;20073;-70
2023/01/12 06:59:00;;;;;;;41.70;4.97;;;;;;;;;;4966083;28;20047;-70
2023/01/12 07:01:27;;;;;;;43.53;5.32;;;;;;;;;;4966716;28;20054;-70
2023/01/12 07:03:54;;;;;;;55.70;6.40;;;;;;;;;;4965578;28;20077;-70
2023/01/12 07:06:23;;;;;;;46.60;6.32;;;;;;;;;;4963425;28;20051;-70
2023/01/12 07:08:50;;;;;;;47.30;5.75;;;;;;;;;;4962697;28;20067;-70
2023/01/12 07:11:17;;;;;;;47.70;6.45;;;;;;;;;;4966426;28;20600;-70
2023/01/12 07:13:44;;;;;;;51.72;5.63;;;;;;;;;;4965691;28;20050;-70
2023/01/12 07:16:12;;;;;;;48.47;5.93;;;;;;;;;;4971023;28;20054;-70
2023/01/12 07:18:39;;;;;;;42.75;5.75;;;;;;;;;;4967147;28;20446;-70
2023/01/12 07:21:06;;;;;;;48.88;5.22;;;;;;;;;;4962075;28;20531;-70
2023/01/12 07:23:36;;;;;;;57.03;7.07;;;;;;;;;;4963955;28;20057;-70
2023/01/12 07:26:03;;;;;;;69.65;6.72;;;;;;;;;;4959198;28;20054;-70
2023/01/12 07:28:32;;;;;;;55.90;6.13;;;;;;;;;;4966756;28;20058;-70
2023/01/12 07:31:01;;;;;;;48.25;5.45;;;;;;;;;;4963554;28;20053;-70
2023/01/12 07:33:28;;;;;;;53.45;7.25;;;;;;;;;;4963742;28;20118;-70
2023/01/12 07:35:58;;;;;;;50.67;6.30;;;;;;;;;;4962832;28;20047;-70
2023/01/12 07:38:25;;;;;;;56.58;7.18;;;;;;;;;;4961226;28;20469;-70
2023/01/12 07:40:54;;;;;;;59.10;6.10;;;;;;;;;;4964525;28;20069;-70
2023/01/12 07:43:22;;;;;;;45.70;5.18;;;;;;;;;;4963440;28;20514;-70
2023/01/12 07:45:49;;;;;;;54.95;7.00;;;;;;;;;;4968622;28;20058;-70
2023/01/12 07:48:16;;;;;;;48.30;5.63;;;;;;;;;;4962514;28;20047;-73
2023/01/12 07:50:43;;;;;;;52.28;5.90;;;;;;;;;;4962386;28;20066;-70
2023/01/12 07:53:11;;;;;;;54.92;6.07;;;;;;;;;;4962686;28;20054;-70
2023/01/12 07:55:42;;;;;;;65.97;6.63;;;;;;;;;;4958728;28;20051;-70
2023/01/12 07:58:11;;;;;;;52.60;6.22;;;;;;;;;;4961264;28;20144;-70
2023/01/12 08:00:38;;;;;;;51.55;6.22;;;;;;;;;;4964214;28;20105;-70
2023/01/12 08:03:07;;;;;;;53.00;5.90;;;;;;;;;;4963684;28;20078;-70
2023/01/12 08:05:34;;;;;;;56.70;6.75;;;;;;;;;;4961906;28;20059;-70
2023/01/12 08:08:01;;;;;;;54.92;7.20;;;;;;;;;;4966416;28;20059;-70
2023/01/12 08:10:29;;;;;;;57.85;6.15;;;;;;;;;;4962077;28;20071;-71
2023/01/12 08:12:56;;;;;;;43.17;6.03;;;;;;;;;;4968623;28;20049;-71
2023/01/12 08:15:26;;;;;;;47.97;6.45;;;;;;;;;;4968777;28;20418;-71
2023/01/12 08:17:57;;;;;;;47.58;5.57;;;;;;;;;;4970293;28;20051;-71
2023/01/12 08:20:26;;;;;;;53.40;6.75;;;;;;;;;;4964966;28;20062;-71
2023/01/12 08:22:55;;;;;;;40.60;4.88;;;;;;;;;;4965774;28;20055;-71
2023/01/12 08:25:25;;;;;;;51.03;5.05;;;;;;;;;;4969395;28;20373;-71
2023/01/12 08:27:54;;;;;;;61.35;6.70;;;;;;;;;;4967791;28;20516;-71
2023/01/12 08:30:23;;;;;;;52.65;5.75;;;;;;;;;;4965012;28;20055;-70
2023/01/12 08:32:51;;;;;;;42.92;4.78;;;;;;;;;;4958503;28;20565;-70
2023/01/12 08:35:20;;;;;;;43.22;5.22;;;;;;;;;;4963656;28;20055;-70
2023/01/12 08:37:48;;;;;;;44.85;5.28;;;;;;;;;;4961165;28;20069;-71
2023/01/12 08:40:15;;;;;;;37.58;4.93;;;;;;;;;;4957446;28;20101;-71
2023/01/12 08:42:43;;;;;;;54.72;6.10;;;;;;;;;;4960809;28;20053;-71
2023/01/12 08:45:10;;;;;;;41.80;6.18;;;;;;;;;;4961912;28;20054;-71
2023/01/12 08:47:39;;;;;;;48.13;7.38;;;;;;;;;;4959832;28;20059;-70
2023/01/12 08:50:08;;;;;;;65.47;6.25;;;;;;;;;;4964140;28;20149;-72
2023/01/12 08:52:36;;;;;;;45.28;6.55;;;;;;;;;;4957875;28;20047;-71
2023/01/12 08:55:03;;;;;;;43.85;4.65;;;;;;;;;;4963220;28;20042;-71
2023/01/12 08:57:30;;;;;;;44.58;5.20;;;;;;;;;;4964609;28;20555;-70
2023/01/12 08:59:57;;;;;;;43.28;4.65;;;;;;;;;;4962856;28;20043;-71
2023/01/12 09:02:25;;;;;;;44.10;5.68;;;;;;;;;;4968565;28;20062;-70
2023/01/12 09:04:53;;;;;;;50.15;5.25;;;;;;;;;;4962940;28;20125;-71
2023/01/12 09:07:21;;;;;;;43.60;5.15;;;;;;;;;;4970026;28;20043;-70
2023/01/12 09:09:48;;;;;;;33.58;4.05;;;;;;;;;;4961730;28;20558;-70
2023/01/12 09:12:16;;;;;;;44.00;5.63;;;;;;;;;;4961571;28;20490;-70
2023/01/12 09:14:43;;;;;;;48.28;5.95;;;;;;;;;;4959244;28;20099;-70
2023/01/12 09:17:10;;;;;;;47.42;5.05;;;;;;;;;;4961954;28;20055;-71
2023/01/12 09:19:37;;;;;;;33.72;4.45;;;;;;;;;;4964361;28;20414;-71
2023/01/12 09:22:05;;;;;;;42.72;5.05;;;;;;;;;;4970550;28;20043;-70
2023/01/12 09:24:33;;;;;;;37.95;4.88;;;;;;;;;;4960958;28;20047;-70
2023/01/12 09:27:00;;;;;;;39.15;4.47;;;;;;;;;;4959472;28;20129;-72
2023/01/12 09:29:28;;;;;;;48.47;5.80;;;;;;;;;;4969104;28;20070;-71
2023/01/12 09:31:55;;;;;;;38.22;4.15;;;;;;;;;;4962898;28;20043;-70
2023/01/12 09:34:22;;;;;;;46.50;5.40;;;;;;;;;;4968502;28;20437;-72
2023/01/12 09:36:51;;;;;;;33.70;4.30;;;;;;;;;;4966999;28;20051;-73
2023/01/12 09:39:18;;;;;;;37.90;5.20;;;;;;;;;;4965018;28;20129;-72
2023/01/12 09:47:26;;;;;;;37.83;4.60;;;;;;;;;;4963089;28;20042;-72
2023/01/12 09:49:57;;;;;;;34.72;5.20;;;;;;;;;;4965005;28;20059;-71
2023/01/12 09:52:26;;;;;;;40.78;4.22;;;;;;;;;;4965765;28;20059;-72
2023/01/12 09:54:54;;;;;;;46.45;4.82;;;;;;;;;;4959979;28;20047;-72
2023/01/12 09:57:35;;;;;;;37.15;4.60;;;;;;;;;;4959223;28;20490;-71
2023/01/12 10:00:04;;;;;;;39.00;4.18;;;;;;;;;;4961350;28;20141;-71
2023/01/12 10:02:34;;;;;;;35.85;3.97;;;;;;;;;;4960921;28;20054;-71
2023/01/12 10:05:03;;;;;;;45.92;6.20;;;;;;;;;;4958305;28;20047;-72
2023/01/12 10:07:31;;;;;;;48.60;5.57;;;;;;;;;;4973750;28;20525;-73
2023/01/12 10:09:59;;;;;;;57.45;6.03;;;;;;;;;;4960292;28;20059;-73
2023/01/12 10:12:30;;;;;;;48.95;5.45;;;;;;;;;;4957893;28;20222;-73
2023/01/12 10:15:02;;;;;;;44.53;4.75;;;;;;;;;;4963738;28;20128;-72
2023/01/12 10:17:34;;;;;;;40.47;5.20;;;;;;;;;;4959132;28;20085;-72
2023/01/12 10:20:05;;;;;;;39.95;5.30;;;;;;;;;;4958592;28;20051;-71
2023/01/12 10:22:39;;;;;;;49.13;6.75;;;;;;;;;;4960918;28;20121;-72
2023/01/12 10:25:15;;;;;;;40.55;4.35;;;;;;;;;;4963277;28;20506;-72
2023/01/12 10:27:43;;;;;;;41.75;5.20;;;;;;;;;;4959591;28;20062;-71
2023/01/12 10:30:14;;;;;;;40.97;4.65;;;;;;;;;;4965087;28;20043;-71
2023/01/12 10:32:41;;;;;;;34.97;5.07;;;;;;;;;;4960154;28;20049;-71
2023/01/12 10:35:15;;;;;;;43.40;4.85;;;;;;;;;;4963516;28;20046;-71
2023/01/12 10:37:49;;;;;;;34.28;4.45;;;;;;;;;;4967032;28;20086;-71
2023/01/12 10:40:30;;;;;;;52.03;5.22;;;;;;;;;;4964705;28;20516;-71
2023/01/12 10:46:05;;;;;;;33.42;4.93;;;;;;;;;;4966985;28;20186;-71
2023/01/12 10:48:33;;;;;;;37.00;5.38;;;;;;;;;;4959500;28;20054;-71
2023/01/12 10:51:01;;;;;;;42.10;4.70;;;;;;;;;;4955792;28;20058;-71
2023/01/12 10:53:30;;;;;;;43.55;4.80;;;;;;;;;;4957745;28;20047;-73
2023/01/12 10:56:00;;;;;;;33.70;3.72;;;;;;;;;;4962939;28;20047;-72
2023/01/12 10:58:29;;;;;;;25.75;3.65;;;;;;;;;;4963719;28;20051;-73
2023/01/12 11:00:57;;;;;;;38.55;3.58;;;;;;;;;;4958590;28;20055;-73
2023/01/12 11:03:36;;;;;;;36.38;3.60;;;;;;;;;;4966188;28;20055;-72
2023/01/12 11:06:16;;;;;;;46.58;4.53;;;;;;;;;;4966390;28;20050;-72
2023/01/12 11:08:44;;;;;;;54.95;4.93;;;;;;;;;;4962553;28;20055;-72
2023/01/12 11:11:23;;;;;;;47.13;5.03;;;;;;;;;;4964237;28;21241;-72
2023/01/12 11:13:52;;;;;;;41.13;5.18;;;;;;;;;;4962324;28;20482;-72
2023/01/12 11:16:22;;;;;;;40.85;5.15;;;;;;;;;;4958455;28;20406;-72
2023/01/12 11:18:52;;;;;;;51.95;5.40;;;;;;;;;;4963695;28;20779;-71
2023/01/12 11:21:22;;;;;;;42.47;5.07;;;;;;;;;;4964303;28;20039;-71
2023/01/12 11:23:54;;;;;;;47.10;5.10;;;;;;;;;;4962684;28;20054;-72
2023/01/12 11:26:26;;;;;;;39.10;5.13;;;;;;;;;;4964655;28;20061;-71
2023/01/12 11:28:56;;;;;;;38.05;5.30;;;;;;;;;;4962550;28;20482;-71
2023/01/12 11:31:25;;;;;;;41.90;4.65;;;;;;;;;;4959959;28;20379;-71
2023/01/12 11:33:56;;;;;;;47.38;6.22;;;;;;;;;;4961080;28;20500;-71
2023/01/12 11:36:25;;;;;;;41.13;4.65;;;;;;;;;;4959225;28;21150;-70
2023/01/12 11:38:55;;;;;;;34.53;3.53;;;;;;;;;;4958941;28;20116;-71
2023/01/12 11:41:25;;;;;;;36.08;4.15;;;;;;;;;;4964944;28;20051;-72
2023/01/12 11:43:55;;;;;;;45.63;4.75;;;;;;;;;;4968082;28;20051;-71
2023/01/12 11:46:25;;;;;;;29.33;3.33;;;;;;;;;;4964863;28;20051;-70
2023/01/12 11:49:00;;;;;;;40.13;4.40;;;;;;;;;;4960890;28;20058;-70
2023/01/12 11:51:28;;;;;;;33.20;3.60;;;;;;;;;;4964511;28;20073;-71
2023/01/12 11:53:55;;;;;;;29.33;3.97;;;;;;;;;;4960423;28;20126;-71
2023/01/12 11:56:37;;;;;;;37.67;3.95;;;;;;;;;;4963773;28;20052;-71
2023/01/12 11:59:10;;;;;;;33.58;3.97;;;;;;;;;;4963544;28;20410;-70
2023/01/12 12:01:41;;;;;;;34.63;4.25;;;;;;;;;;4964046;28;20054;-71
2023/01/12 12:04:14;;;;;;;34.15;3.78;;;;;;;;;;4959259;28;21997;-70
2023/01/12 12:06:47;;;;;;;29.35;3.50;;;;;;;;;;4963303;28;20062;-71
2023/01/12 12:09:32;;;;;;;34.05;4.60;;;;;;;;;;4963056;28;20050;-71
2023/01/12 12:12:01;;;;;;;37.20;4.15;;;;;;;;;;4954473;28;20055;-71
2023/01/12 12:14:35;;;;;;;41.40;4.55;;;;;;;;;;4966953;28;20058;-71
2023/01/12 12:17:06;;;;;;;27.17;3.97;;;;;;;;;;4964703;28;20401;-71
2023/01/12 12:19:39;;;;;;;35.22;4.30;;;;;;;;;;4966567;28;20047;-71
2023/01/12 12:22:12;;;;;;;45.30;4.90;;;;;;;;;;4965844;28;20054;-70
2023/01/12 12:24:57;;;;;;;38.80;3.97;;;;;;;;;;4963508;28;20047;-71
2023/01/12 12:27:30;;;;;;;32.33;3.58;;;;;;;;;;4966999;28;20059;-71
2023/01/12 12:30:21;;;;;;;40.25;4.55;;;;;;;;;;4968823;28;20505;-71
2023/01/12 12:32:51;;;;;;;37.35;4.20;;;;;;;;;;4959927;28;20047;-71
2023/01/12 12:35:29;;;;;;;36.53;4.90;;;;;;;;;;4965740;28;20059;-71
2023/01/12 12:38:02;;;;;;;35.95;3.90;;;;;;;;;;4973446;28;20051;-70
2023/01/12 12:45:15;;;;;;;38.03;3.78;;;;;;;;;;4971395;28;20047;-71
2023/01/12 12:46:16;;;;;;;39.95;4.28;;;;;;;;;;4972235;28;20050;-70
2023/01/12 12:48:50;;;;;;;43.42;4.03;;;;;;;;;;4970377;28;20050;-72
2023/01/12 12:51:19;;;;;;;40.03;4.28;;;;;;;;;;4969045;28;20070;-71
2023/01/12 12:53:48;;;;;;;44.33;5.22;;;;;;;;;;4974617;28;20057;-71
2023/01/12 12:56:17;;;;;;;35.22;4.28;;;;;;;;;;4962442;28;20051;-71
2023/01/12 12:58:45;;;;;;;37.25;4.65;;;;;;;;;;4975151;28;20051;-71
2023/01/12 13:01:42;;;;;;;35.28;4.38;;;;;;;;;;4975544;28;20550;-71
2023/01/12 13:04:11;;;;;;;49.65;4.72;;;;;;;;;;4974766;28;20512;-71
2023/01/12 13:06:41;;;;;;;39.00;4.63;;;;;;;;;;4976503;28;20057;-71
2023/01/12 13:09:27;;;;;;;35.40;3.65;;;;;;;;;;4972675;28;20054;-71
2023/01/12 13:11:55;;;;;;;34.78;3.90;;;;;;;;;;4969038;28;20043;-71
2023/01/12 13:14:25;;;;;;;35.28;4.05;;;;;;;;;;4980052;28;20142;-72
2023/01/12 13:16:54;;;;;;;35.35;4.15;;;;;;;;;;4969637;28;20047;-71
2023/01/12 13:19:35;;;;;;;34.78;4.10;;;;;;;;;;4973179;28;20121;-74
2023/01/12 13:22:27;;;;;;;35.95;4.07;;;;;;;;;;4968106;28;20102;-73
2023/01/12 13:24:54;;;;;;;35.63;4.55;;;;;;;;;;4968049;28;20057;-72
2023/01/12 13:27:40;;;;;;;33.47;4.85;;;;;;;;;;4961512;28;20051;-72
2023/01/12 13:30:20;;;;;;;41.00;4.90;;;;;;;;;;4970725;28;20046;-72
2023/01/12 13:32:57;;;;;;;35.83;4.97;;;;;;;;;;4968539;28;20062;-72
2023/01/12 13:35:45;;;;;;;39.53;5.18;;;;;;;;;;4964900;28;20082;-72
2023/01/12 13:38:16;;;;;;;38.50;5.03;;;;;;;;;;4967200;28;20043;-72
2023/01/12 13:40:43;;;;;;;41.08;5.90;;;;;;;;;;4974057;28;20105;-72
2023/01/12 13:43:13;;;;;;;32.65;4.63;;;;;;;;;;4970671;28;20514;-69
2023/01/12 13:45:44;;;;;;;36.03;4.43;;;;;;;;;;4972061;28;20046;-73
2023/01/12 13:48:13;;;;;;;46.67;5.00;;;;;;;;;;4965248;28;20059;-71
2023/01/12 13:50:47;;;;;;;34.17;4.30;;;;;;;;;;4958996;28;20059;-72
2023/01/12 13:53:22;;;;;;;29.70;3.60;;;;;;;;;;4970960;28;20043;-72
2023/01/12 13:55:57;;;;;;;34.95;4.65;;;;;;;;;;4962374;28;20051;-72
2023/01/12 13:58:24;;;;;;;37.20;4.25;;;;;;;;;;4972262;28;20054;-72
2023/01/12 14:00:56;;;;;;;33.28;4.07;;;;;;;;;;4970425;28;20057;-71
2023/01/12 14:03:30;;;;;;;34.92;5.75;;;;;;;;;;4965299;28;20069;-72
2023/01/12 14:06:03;;;;;;;41.47;4.05;;;;;;;;;;4966186;28;20057;-72
2023/01/12 14:08:30;;;;;;;;;;;;;;;;;;4965158;28;20054;-72
2023/01/12 14:11:02;;;;;;;29.63;3.38;;;;;;;;;;4971153;28;19922;-72
2023/01/12 14:13:40;;;;;;;34.22;3.90;;;;;;;;;;4968218;28;20055;-72
2023/01/12 14:18:56;;;;;;;28.85;4.40;;;;;;;;;;4967903;28;20051;-74
2023/01/12 14:21:25;;;;;;;26.23;3.00;;;;;;;;;;4961896;28;20086;-75
2023/01/12 14:23:52;;;;;;;24.60;3.17;;;;;;;;;;4968111;28;20055;-72
2023/01/12 14:26:22;;;;;;;21.35;2.28;;;;;;;;;;4968521;28;20047;-73
2023/01/12 14:28:51;;;;;;;16.95;2.10;;;;;;;;;;4964981;28;20059;-72
2023/01/12 14:31:25;;;;;;;24.00;2.70;;;;;;;;;;4967586;28;20051;-73
2023/01/12 14:33:54;;;;;;;21.33;3.53;;;;;;;;;;4967010;28;20042;-72
2023/01/12 14:36:23;;;;;;;22.00;2.97;;;;;;;;;;4969397;28;20374;-73
2023/01/12 14:38:51;;;;;;;17.10;3.22;;;;;;;;;;4966940;28;20055;-72
2023/01/12 14:46:52;;;;;;;22.02;3.00;;;;;;;;;;4967346;28;20502;-72
2023/01/12 14:49:20;;;;;;;24.02;3.80;;;;;;;;;;4961012;28;20066;-71
2023/01/12 14:51:54;;;;;;;24.77;3.65;;;;;;;;;;4966598;28;20047;-73
2023/01/12 14:54:25;;;;;;;28.00;3.67;;;;;;;;;;4966608;28;20378;-73
2023/01/12 14:56:55;;;;;;;24.98;3.45;;;;;;;;;;4971774;28;20422;-73
2023/01/12 14:59:24;;;;;;;23.92;3.40;;;;;;;;;;4967440;28;20043;-72
2023/01/12 15:01:52;;;;;;;29.58;4.25;;;;;;;;;;4966442;28;20058;-72
2023/01/12 15:04:21;;;;;;;25.23;4.10;;;;;;;;;;4966792;28;20495;-72
2023/01/12 15:07:00;;;;;;;30.58;3.75;;;;;;;;;;4966850;28;20054;-71
2023/01/12 15:09:28;;;;;;;31.23;4.03;;;;;;;;;;4984437;28;20078;-72
2023/01/12 15:11:55;;;;;;;40.60;5.13;;;;;;;;;;4965979;28;20047;-71
2023/01/12 15:14:25;;;;;;;50.13;6.47;;;;;;;;;;4963840;28;20053;-71
2023/01/12 15:27:57;;;;;;;52.05;6.75;;;;;;;;;;4960552;28;20462;-71
2023/01/12 15:30:26;;;;;;;43.25;5.50;;;;;;;;;;4965751;28;20059;-71
2023/01/12 15:32:54;;;;;;;48.45;5.65;;;;;;;;;;4959697;28;20137;-71
2023/01/12 15:35:22;;;;;;;57.97;8.02;;;;;;;;;;4955939;28;20054;-71
2023/01/12 15:37:49;;;;;;;53.75;6.63;;;;;;;;;;4965720;28;20105;-70
2023/01/12 15:40:17;;;;;;;42.42;5.38;;;;;;;;;;4961808;28;20059;-71
2023/01/12 15:42:44;;;;;;;49.35;5.53;;;;;;;;;;4958402;28;20074;-72
2023/01/12 15:45:28;;;;;;;44.78;5.00;;;;;;;;;;4959280;28;20047;-72